sensor_id;sensor_type;location;lat;lon;timestamp;temperature;humidity
17984;DHT22;9117;52.420;20.728;2023-04-25T00:00:25;11.10;99.90
17984;DHT22;9117;52.420;20.728;2023-04-25T00:02:54;11.00;99.90
17984;DHT22;9117;52.420;20.728;2023-04-25T00:05:24;10.90;99.90
17984;DHT22;9117;52.420;20.728;2023-04-25T00:07:53;10.80;99.90
17984;DHT22;9117;52.420;20.728;2023-04-25T00:10:21;10.90;99.90
17984;DHT22;9117;52.420;20.728;2023-04-25T00:12:49;10.90;99.90
17984;DHT22;9117;52.420;20.728;2023-04-25T00:15:18;10.80;99.90
17984;DHT22;9117;52.420;20.728;2023-04-25T00:17:47;10.70;99.90
17984;DHT22;9117;52.420;20.728;2023-04-25T00:20:17;10.70;99.90
17984;DHT22;9117;52.420;20.728;2023-04-25T00:22:45;10.80;99.90
17984;DHT22;9117;52.420;20.728;2023-04-25T00:25:14;10.70;99.90
17984;DHT22;9117;52.420;20.728;2023-04-25T00:27:42;10.70;99.90
17984;DHT22;9117;52.420;20.728;2023-04-25T00:30:12;10.70;99.90
17984;DHT22;9117;52.420;20.728;2023-04-25T00:32:40;10.80;99.90
17984;DHT22;9117;52.420;20.728;2023-04-25T00:35:09;10.80;99.90
17984;DHT22;9117;52.420;20.728;2023-04-25T00:37:39;10.80;99.90
17984;DHT22;9117;52.420;20.728;2023-04-25T00:40:08;10.70;99.90
17984;DHT22;9117;52.420;20.728;2023-04-25T00:42:37;10.70;99.90
17984;DHT22;9117;52.420;20.728;2023-04-25T00:45:06;10.50;99.90
17984;DHT22;9117;52.420;20.728;2023-04-25T00:47:37;10.60;99.90
17984;DHT22;9117;52.420;20.728;2023-04-25T00:50:07;10.60;99.90
17984;DHT22;9117;52.420;20.728;2023-04-25T00:52:36;10.70;99.90
17984;DHT22;9117;52.420;20.728;2023-04-25T00:55:07;10.70;99.90
17984;DHT22;9117;52.420;20.728;2023-04-25T00:57:35;10.70;99.90
17984;DHT22;9117;52.420;20.728;2023-04-25T01:00:05;10.70;99.90
17984;DHT22;9117;52.420;20.728;2023-04-25T01:02:33;10.70;99.90
17984;DHT22;9117;52.420;20.728;2023-04-25T01:05:03;10.70;99.90
17984;DHT22;9117;52.420;20.728;2023-04-25T01:07:31;10.60;99.90
17984;DHT22;9117;52.420;20.728;2023-04-25T01:10:00;10.60;99.90
17984;DHT22;9117;52.420;20.728;2023-04-25T01:12:31;10.60;99.90
17984;DHT22;9117;52.420;20.728;2023-04-25T01:14:59;10.70;99.90
17984;DHT22;9117;52.420;20.728;2023-04-25T01:17:28;10.60;99.90
17984;DHT22;9117;52.420;20.728;2023-04-25T01:19:56;10.60;99.90
17984;DHT22;9117;52.420;20.728;2023-04-25T01:22:26;10.60;99.90
17984;DHT22;9117;52.420;20.728;2023-04-25T01:24:54;10.60;99.90
17984;DHT22;9117;52.420;20.728;2023-04-25T01:27:23;10.60;99.90
17984;DHT22;9117;52.420;20.728;2023-04-25T01:29:52;10.60;99.90
17984;DHT22;9117;52.420;20.728;2023-04-25T01:32:22;10.60;99.90
17984;DHT22;9117;52.420;20.728;2023-04-25T01:34:51;10.60;99.90
17984;DHT22;9117;52.420;20.728;2023-04-25T01:37:20;10.60;99.90
17984;DHT22;9117;52.420;20.728;2023-04-25T01:39:49;10.50;99.90
17984;DHT22;9117;52.420;20.728;2023-04-25T01:42:18;10.50;99.90
17984;DHT22;9117;52.420;20.728;2023-04-25T01:44:46;10.50;99.90
17984;DHT22;9117;52.420;20.728;2023-04-25T01:47:14;10.50;99.90
17984;DHT22;9117;52.420;20.728;2023-04-25T01:49:42;10.60;99.90
17984;DHT22;9117;52.420;20.728;2023-04-25T01:52:10;10.60;99.90
17984;DHT22;9117;52.420;20.728;2023-04-25T01:54:39;10.50;99.90
17984;DHT22;9117;52.420;20.728;2023-04-25T01:57:12;10.50;99.90
17984;DHT22;9117;52.420;20.728;2023-04-25T01:59:41;10.50;99.90
17984;DHT22;9117;52.420;20.728;2023-04-25T02:02:09;10.50;99.90
17984;DHT22;9117;52.420;20.728;2023-04-25T02:04:38;10.50;99.90
17984;DHT22;9117;52.420;20.728;2023-04-25T02:07:06;10.50;99.90
17984;DHT22;9117;52.420;20.728;2023-04-25T02:09:34;10.50;99.90
17984;DHT22;9117;52.420;20.728;2023-04-25T02:12:02;10.50;99.90
17984;DHT22;9117;52.420;20.728;2023-04-25T02:14:32;10.50;99.90
17984;DHT22;9117;52.420;20.728;2023-04-25T02:17:00;10.50;99.90
17984;DHT22;9117;52.420;20.728;2023-04-25T02:19:29;10.50;99.90
17984;DHT22;9117;52.420;20.728;2023-04-25T02:21:57;10.50;99.90
17984;DHT22;9117;52.420;20.728;2023-04-25T02:24:25;10.50;99.90
17984;DHT22;9117;52.420;20.728;2023-04-25T02:26:54;10.60;99.90
17984;DHT22;9117;52.420;20.728;2023-04-25T02:29:23;10.50;99.90
17984;DHT22;9117;52.420;20.728;2023-04-25T02:31:52;10.60;99.90
17984;DHT22;9117;52.420;20.728;2023-04-25T02:34:21;10.60;99.90
17984;DHT22;9117;52.420;20.728;2023-04-25T02:36:49;10.70;99.90
17984;DHT22;9117;52.420;20.728;2023-04-25T02:39:17;10.70;99.90
17984;DHT22;9117;52.420;20.728;2023-04-25T02:41:46;10.60;99.90
17984;DHT22;9117;52.420;20.728;2023-04-25T02:44:14;10.60;99.90
17984;DHT22;9117;52.420;20.728;2023-04-25T02:46:42;10.60;99.90
17984;DHT22;9117;52.420;20.728;2023-04-25T02:49:12;10.60;99.90
17984;DHT22;9117;52.420;20.728;2023-04-25T02:51:40;10.60;99.90
17984;DHT22;9117;52.420;20.728;2023-04-25T02:54:08;10.60;99.90
17984;DHT22;9117;52.420;20.728;2023-04-25T02:56:36;10.60;99.90
17984;DHT22;9117;52.420;20.728;2023-04-25T02:59:04;10.50;99.90
17984;DHT22;9117;52.420;20.728;2023-04-25T03:01:33;10.50;99.90
17984;DHT22;9117;52.420;20.728;2023-04-25T03:04:01;10.40;99.90
17984;DHT22;9117;52.420;20.728;2023-04-25T03:06:30;10.40;99.90
17984;DHT22;9117;52.420;20.728;2023-04-25T03:08:58;10.40;99.90
17984;DHT22;9117;52.420;20.728;2023-04-25T03:11:27;10.40;99.90
17984;DHT22;9117;52.420;20.728;2023-04-25T03:13:55;10.50;99.90
17984;DHT22;9117;52.420;20.728;2023-04-25T03:16:23;10.50;99.90
17984;DHT22;9117;52.420;20.728;2023-04-25T03:18:52;10.50;99.90
17984;DHT22;9117;52.420;20.728;2023-04-25T03:21:20;10.50;99.90
17984;DHT22;9117;52.420;20.728;2023-04-25T03:23:49;10.50;99.90
17984;DHT22;9117;52.420;20.728;2023-04-25T03:26:18;10.50;99.90
17984;DHT22;9117;52.420;20.728;2023-04-25T03:28:47;10.50;99.90
17984;DHT22;9117;52.420;20.728;2023-04-25T03:31:15;10.60;99.90
17984;DHT22;9117;52.420;20.728;2023-04-25T03:33:43;10.60;99.90
17984;DHT22;9117;52.420;20.728;2023-04-25T03:36:11;10.70;99.90
17984;DHT22;9117;52.420;20.728;2023-04-25T03:38:40;10.70;99.90
17984;DHT22;9117;52.420;20.728;2023-04-25T03:41:10;10.80;99.90
17984;DHT22;9117;52.420;20.728;2023-04-25T03:43:38;10.80;99.90
17984;DHT22;9117;52.420;20.728;2023-04-25T03:46:06;10.90;99.90
17984;DHT22;9117;52.420;20.728;2023-04-25T03:48:34;10.90;99.90
17984;DHT22;9117;52.420;20.728;2023-04-25T03:51:03;10.90;99.90
17984;DHT22;9117;52.420;20.728;2023-04-25T03:53:31;11.00;99.90
17984;DHT22;9117;52.420;20.728;2023-04-25T03:55:59;11.00;99.90
17984;DHT22;9117;52.420;20.728;2023-04-25T03:58:29;11.00;99.90
17984;DHT22;9117;52.420;20.728;2023-04-25T04:00:57;11.00;99.90
17984;DHT22;9117;52.420;20.728;2023-04-25T04:03:25;11.00;99.90
17984;DHT22;9117;52.420;20.728;2023-04-25T04:05:54;11.00;99.90
17984;DHT22;9117;52.420;20.728;2023-04-25T04:08:22;11.00;99.90
17984;DHT22;9117;52.420;20.728;2023-04-25T04:10:50;11.00;99.90
17984;DHT22;9117;52.420;20.728;2023-04-25T04:13:18;10.90;99.90
17984;DHT22;9117;52.420;20.728;2023-04-25T04:15:48;10.90;99.90
17984;DHT22;9117;52.420;20.728;2023-04-25T04:18:17;10.90;99.90
17984;DHT22;9117;52.420;20.728;2023-04-25T04:20:45;10.90;99.90
17984;DHT22;9117;52.420;20.728;2023-04-25T04:23:13;10.80;99.90
17984;DHT22;9117;52.420;20.728;2023-04-25T04:25:42;10.80;99.90
17984;DHT22;9117;52.420;20.728;2023-04-25T04:28:10;10.80;99.90
17984;DHT22;9117;52.420;20.728;2023-04-25T04:30:39;10.70;99.90
17984;DHT22;9117;52.420;20.728;2023-04-25T04:33:10;10.60;99.90
17984;DHT22;9117;52.420;20.728;2023-04-25T04:35:38;10.70;99.90
17984;DHT22;9117;52.420;20.728;2023-04-25T04:38:08;10.60;99.90
17984;DHT22;9117;52.420;20.728;2023-04-25T04:40:37;10.70;99.90
17984;DHT22;9117;52.420;20.728;2023-04-25T04:43:05;10.70;99.90
17984;DHT22;9117;52.420;20.728;2023-04-25T04:45:35;10.70;99.90
17984;DHT22;9117;52.420;20.728;2023-04-25T04:48:05;10.60;99.90
17984;DHT22;9117;52.420;20.728;2023-04-25T04:50:35;10.70;99.90
17984;DHT22;9117;52.420;20.728;2023-04-25T04:53:04;10.70;99.90
17984;DHT22;9117;52.420;20.728;2023-04-25T04:55:32;10.70;99.90
17984;DHT22;9117;52.420;20.728;2023-04-25T04:58:00;10.60;99.90
17984;DHT22;9117;52.420;20.728;2023-04-25T05:00:29;10.60;99.90
17984;DHT22;9117;52.420;20.728;2023-04-25T05:02:57;10.60;99.90
17984;DHT22;9117;52.420;20.728;2023-04-25T05:05:25;10.50;99.90
17984;DHT22;9117;52.420;20.728;2023-04-25T05:07:55;10.40;99.90
17984;DHT22;9117;52.420;20.728;2023-04-25T05:10:23;10.40;99.90
17984;DHT22;9117;52.420;20.728;2023-04-25T05:12:52;10.30;99.90
17984;DHT22;9117;52.420;20.728;2023-04-25T05:15:20;10.30;99.90
17984;DHT22;9117;52.420;20.728;2023-04-25T05:17:48;10.30;99.90
17984;DHT22;9117;52.420;20.728;2023-04-25T05:20:16;10.40;99.90
17984;DHT22;9117;52.420;20.728;2023-04-25T05:22:45;10.40;99.90
17984;DHT22;9117;52.420;20.728;2023-04-25T05:25:15;10.40;99.90
17984;DHT22;9117;52.420;20.728;2023-04-25T05:27:43;10.40;99.90
17984;DHT22;9117;52.420;20.728;2023-04-25T05:30:12;10.40;99.90
17984;DHT22;9117;52.420;20.728;2023-04-25T05:32:40;10.30;99.90
17984;DHT22;9117;52.420;20.728;2023-04-25T05:35:09;10.40;99.90
17984;DHT22;9117;52.420;20.728;2023-04-25T05:37:37;10.40;99.90
17984;DHT22;9117;52.420;20.728;2023-04-25T05:40:07;10.30;99.90
17984;DHT22;9117;52.420;20.728;2023-04-25T05:42:37;10.30;99.90
17984;DHT22;9117;52.420;20.728;2023-04-25T05:45:06;10.30;99.90
17984;DHT22;9117;52.420;20.728;2023-04-25T05:47:34;10.30;99.90
17984;DHT22;9117;52.420;20.728;2023-04-25T05:50:03;10.20;99.90
17984;DHT22;9117;52.420;20.728;2023-04-25T05:52:31;10.10;99.90
17984;DHT22;9117;52.420;20.728;2023-04-25T05:55:00;10.20;99.90
17984;DHT22;9117;52.420;20.728;2023-04-25T05:57:28;10.10;99.90
17984;DHT22;9117;52.420;20.728;2023-04-25T05:59:57;10.10;99.90
17984;DHT22;9117;52.420;20.728;2023-04-25T06:02:26;10.10;99.90
17984;DHT22;9117;52.420;20.728;2023-04-25T06:04:54;10.10;99.90
17984;DHT22;9117;52.420;20.728;2023-04-25T06:07:22;9.90;99.90
17984;DHT22;9117;52.420;20.728;2023-04-25T06:09:51;9.90;99.90
17984;DHT22;9117;52.420;20.728;2023-04-25T06:12:20;9.90;99.90
17984;DHT22;9117;52.420;20.728;2023-04-25T06:14:48;9.80;99.90
17984;DHT22;9117;52.420;20.728;2023-04-25T06:17:17;9.90;99.90
17984;DHT22;9117;52.420;20.728;2023-04-25T06:19:46;9.90;99.90
17984;DHT22;9117;52.420;20.728;2023-04-25T06:22:14;9.90;99.90
17984;DHT22;9117;52.420;20.728;2023-04-25T06:24:42;10.00;99.90
17984;DHT22;9117;52.420;20.728;2023-04-25T06:27:10;9.90;99.90
17984;DHT22;9117;52.420;20.728;2023-04-25T06:29:40;10.00;99.90
17984;DHT22;9117;52.420;20.728;2023-04-25T06:32:09;10.10;99.90
17984;DHT22;9117;52.420;20.728;2023-04-25T06:34:38;10.00;99.90
17984;DHT22;9117;52.420;20.728;2023-04-25T06:37:06;9.90;99.90
17984;DHT22;9117;52.420;20.728;2023-04-25T06:39:35;10.10;99.90
17984;DHT22;9117;52.420;20.728;2023-04-25T06:42:06;9.90;99.90
17984;DHT22;9117;52.420;20.728;2023-04-25T06:44:35;9.80;99.90
17984;DHT22;9117;52.420;20.728;2023-04-25T06:47:03;9.70;99.90
17984;DHT22;9117;52.420;20.728;2023-04-25T06:49:32;9.70;99.90
17984;DHT22;9117;52.420;20.728;2023-04-25T06:52:01;9.60;99.90
17984;DHT22;9117;52.420;20.728;2023-04-25T06:54:29;9.60;99.90
17984;DHT22;9117;52.420;20.728;2023-04-25T06:56:58;9.50;99.90
17984;DHT22;9117;52.420;20.728;2023-04-25T06:59:27;9.60;99.90
17984;DHT22;9117;52.420;20.728;2023-04-25T07:01:55;9.50;99.90
17984;DHT22;9117;52.420;20.728;2023-04-25T07:04:23;9.50;99.90
17984;DHT22;9117;52.420;20.728;2023-04-25T07:06:53;9.50;99.90
17984;DHT22;9117;52.420;20.728;2023-04-25T07:09:23;9.60;99.90
17984;DHT22;9117;52.420;20.728;2023-04-25T07:11:51;9.60;99.90
17984;DHT22;9117;52.420;20.728;2023-04-25T07:14:19;9.60;99.90
17984;DHT22;9117;52.420;20.728;2023-04-25T07:16:48;9.60;99.90
17984;DHT22;9117;52.420;20.728;2023-04-25T07:19:16;9.70;99.90
17984;DHT22;9117;52.420;20.728;2023-04-25T07:21:44;9.60;99.90
17984;DHT22;9117;52.420;20.728;2023-04-25T07:24:12;9.70;99.90
17984;DHT22;9117;52.420;20.728;2023-04-25T07:26:42;9.60;99.90
17984;DHT22;9117;52.420;20.728;2023-04-25T07:29:10;9.60;99.90
17984;DHT22;9117;52.420;20.728;2023-04-25T07:31:38;9.70;99.90
17984;DHT22;9117;52.420;20.728;2023-04-25T07:34:07;9.50;99.90
17984;DHT22;9117;52.420;20.728;2023-04-25T07:36:35;9.40;99.90
17984;DHT22;9117;52.420;20.728;2023-04-25T07:39:03;9.30;99.90
17984;DHT22;9117;52.420;20.728;2023-04-25T07:41:32;9.30;99.90
17984;DHT22;9117;52.420;20.728;2023-04-25T07:44:03;9.40;99.90
17984;DHT22;9117;52.420;20.728;2023-04-25T07:46:31;9.30;99.90
17984;DHT22;9117;52.420;20.728;2023-04-25T07:49:00;9.30;99.90
17984;DHT22;9117;52.420;20.728;2023-04-25T07:51:28;9.30;99.90
17984;DHT22;9117;52.420;20.728;2023-04-25T07:53:56;9.20;99.90
17984;DHT22;9117;52.420;20.728;2023-04-25T07:56:24;9.20;99.90
17984;DHT22;9117;52.420;20.728;2023-04-25T07:58:52;9.30;99.90
17984;DHT22;9117;52.420;20.728;2023-04-25T08:01:22;9.20;99.90
17984;DHT22;9117;52.420;20.728;2023-04-25T08:03:50;9.20;99.90
17984;DHT22;9117;52.420;20.728;2023-04-25T08:06:18;9.30;99.90
17984;DHT22;9117;52.420;20.728;2023-04-25T08:08:47;9.30;99.90
17984;DHT22;9117;52.420;20.728;2023-04-25T08:11:16;9.50;99.90
17984;DHT22;9117;52.420;20.728;2023-04-25T08:13:44;9.30;99.90
17984;DHT22;9117;52.420;20.728;2023-04-25T08:16:12;9.30;99.90
17984;DHT22;9117;52.420;20.728;2023-04-25T08:18:42;9.40;99.90
17984;DHT22;9117;52.420;20.728;2023-04-25T08:21:10;9.40;99.90
17984;DHT22;9117;52.420;20.728;2023-04-25T08:23:39;9.40;99.90
17984;DHT22;9117;52.420;20.728;2023-04-25T08:26:07;9.60;99.90
17984;DHT22;9117;52.420;20.728;2023-04-25T08:28:35;9.50;99.90
17984;DHT22;9117;52.420;20.728;2023-04-25T08:31:04;9.50;99.90
17984;DHT22;9117;52.420;20.728;2023-04-25T08:33:32;9.40;99.90
17984;DHT22;9117;52.420;20.728;2023-04-25T08:36:02;9.40;99.90
17984;DHT22;9117;52.420;20.728;2023-04-25T08:38:30;9.40;99.90
17984;DHT22;9117;52.420;20.728;2023-04-25T08:41:00;9.50;99.90
17984;DHT22;9117;52.420;20.728;2023-04-25T08:43:29;9.40;99.90
17984;DHT22;9117;52.420;20.728;2023-04-25T08:45:59;8.40;99.90
17984;DHT22;9117;52.420;20.728;2023-04-25T08:48:28;9.50;99.90
17984;DHT22;9117;52.420;20.728;2023-04-25T08:50:56;9.60;99.90
17984;DHT22;9117;52.420;20.728;2023-04-25T08:53:28;9.80;99.90
17984;DHT22;9117;52.420;20.728;2023-04-25T08:55:58;9.90;99.90
17984;DHT22;9117;52.420;20.728;2023-04-25T08:58:29;10.00;99.90
17984;DHT22;9117;52.420;20.728;2023-04-25T09:00:57;10.00;99.90
17984;DHT22;9117;52.420;20.728;2023-04-25T09:03:25;10.00;99.90
17984;DHT22;9117;52.420;20.728;2023-04-25T09:05:54;10.20;99.60
17984;DHT22;9117;52.420;20.728;2023-04-25T09:08:23;10.30;97.30
17984;DHT22;9117;52.420;20.728;2023-04-25T09:10:52;10.10;92.90
17984;DHT22;9117;52.420;20.728;2023-04-25T09:13:25;10.20;92.10
17984;DHT22;9117;52.420;20.728;2023-04-25T09:15:55;10.20;92.90
17984;DHT22;9117;52.420;20.728;2023-04-25T09:18:24;10.20;93.40
17984;DHT22;9117;52.420;20.728;2023-04-25T09:21:05;10.20;89.00
17984;DHT22;9117;52.420;20.728;2023-04-25T09:23:41;10.10;91.70
17984;DHT22;9117;52.420;20.728;2023-04-25T09:26:14;10.10;92.60
17984;DHT22;9117;52.420;20.728;2023-04-25T09:28:44;10.10;92.20
17984;DHT22;9117;52.420;20.728;2023-04-25T09:31:13;10.20;96.00
17984;DHT22;9117;52.420;20.728;2023-04-25T09:33:49;10.40;90.50
17984;DHT22;9117;52.420;20.728;2023-04-25T09:36:26;10.40;91.20
17984;DHT22;9117;52.420;20.728;2023-04-25T09:38:55;10.20;92.30
17984;DHT22;9117;52.420;20.728;2023-04-25T09:41:25;10.40;91.40
17984;DHT22;9117;52.420;20.728;2023-04-25T09:43:56;10.50;92.00
17984;DHT22;9117;52.420;20.728;2023-04-25T09:46:25;10.40;92.40
17984;DHT22;9117;52.420;20.728;2023-04-25T09:49:06;10.40;91.70
17984;DHT22;9117;52.420;20.728;2023-04-25T09:51:34;10.30;88.40
17984;DHT22;9117;52.420;20.728;2023-04-25T09:54:03;10.30;90.20
17984;DHT22;9117;52.420;20.728;2023-04-25T09:56:36;10.30;87.10
17984;DHT22;9117;52.420;20.728;2023-04-25T09:59:05;10.30;81.60
17984;DHT22;9117;52.420;20.728;2023-04-25T10:01:35;10.20;81.70
17984;DHT22;9117;52.420;20.728;2023-04-25T10:04:04;10.20;87.40
17984;DHT22;9117;52.420;20.728;2023-04-25T10:06:34;10.20;85.50
17984;DHT22;9117;52.420;20.728;2023-04-25T10:09:04;10.10;80.40
17984;DHT22;9117;52.420;20.728;2023-04-25T10:11:36;10.30;88.30
17984;DHT22;9117;52.420;20.728;2023-04-25T10:14:05;10.30;82.40
17984;DHT22;9117;52.420;20.728;2023-04-25T10:16:33;10.40;93.10
17984;DHT22;9117;52.420;20.728;2023-04-25T10:19:02;10.30;90.00
17984;DHT22;9117;52.420;20.728;2023-04-25T10:21:32;10.20;91.10
17984;DHT22;9117;52.420;20.728;2023-04-25T10:24:00;10.30;91.10
17984;DHT22;9117;52.420;20.728;2023-04-25T10:26:30;10.30;82.40
17984;DHT22;9117;52.420;20.728;2023-04-25T10:29:00;10.30;84.50
17984;DHT22;9117;52.420;20.728;2023-04-25T10:31:29;10.30;85.60
17984;DHT22;9117;52.420;20.728;2023-04-25T10:34:00;10.20;75.80
17984;DHT22;9117;52.420;20.728;2023-04-25T10:36:32;10.30;71.40
17984;DHT22;9117;52.420;20.728;2023-04-25T10:39:04;10.40;79.20
17984;DHT22;9117;52.420;20.728;2023-04-25T10:41:46;10.50;81.80
17984;DHT22;9117;52.420;20.728;2023-04-25T10:44:16;10.40;74.20
17984;DHT22;9117;52.420;20.728;2023-04-25T10:46:45;10.60;81.90
17984;DHT22;9117;52.420;20.728;2023-04-25T10:49:32;10.60;78.30
17984;DHT22;9117;52.420;20.728;2023-04-25T10:52:18;11.20;77.80
17984;DHT22;9117;52.420;20.728;2023-04-25T10:54:47;10.60;80.30
17984;DHT22;9117;52.420;20.728;2023-04-25T10:57:30;10.70;79.80
17984;DHT22;9117;52.420;20.728;2023-04-25T11:00:01;10.60;80.20
17984;DHT22;9117;52.420;20.728;2023-04-25T11:02:37;10.80;81.70
17984;DHT22;9117;52.420;20.728;2023-04-25T11:05:07;10.80;78.90
17984;DHT22;9117;52.420;20.728;2023-04-25T11:07:38;10.70;87.80
17984;DHT22;9117;52.420;20.728;2023-04-25T11:10:09;10.60;85.30
17984;DHT22;9117;52.420;20.728;2023-04-25T11:12:37;10.60;83.20
17984;DHT22;9117;52.420;20.728;2023-04-25T11:15:07;10.60;75.40
17984;DHT22;9117;52.420;20.728;2023-04-25T11:17:36;10.60;82.60
17984;DHT22;9117;52.420;20.728;2023-04-25T11:20:07;10.50;71.70
17984;DHT22;9117;52.420;20.728;2023-04-25T11:22:38;10.50;79.90
17984;DHT22;9117;52.420;20.728;2023-04-25T11:25:10;10.50;86.40
17984;DHT22;9117;52.420;20.728;2023-04-25T11:27:39;10.50;74.20
17984;DHT22;9117;52.420;20.728;2023-04-25T11:30:14;10.40;80.80
17984;DHT22;9117;52.420;20.728;2023-04-25T11:32:43;10.40;79.00
17984;DHT22;9117;52.420;20.728;2023-04-25T11:35:12;10.40;75.60
17984;DHT22;9117;52.420;20.728;2023-04-25T11:37:43;10.50;70.80
17984;DHT22;9117;52.420;20.728;2023-04-25T11:40:12;10.60;75.10
17984;DHT22;9117;52.420;20.728;2023-04-25T11:42:44;10.60;75.20
17984;DHT22;9117;52.420;20.728;2023-04-25T11:45:15;10.50;68.60
17984;DHT22;9117;52.420;20.728;2023-04-25T11:47:43;10.50;72.40
17984;DHT22;9117;52.420;20.728;2023-04-25T11:50:11;10.40;71.20
17984;DHT22;9117;52.420;20.728;2023-04-25T11:52:42;10.40;74.20
17984;DHT22;9117;52.420;20.728;2023-04-25T11:55:13;10.40;74.70
17984;DHT22;9117;52.420;20.728;2023-04-25T11:57:43;10.50;81.20
17984;DHT22;9117;52.420;20.728;2023-04-25T12:00:14;10.50;69.30
17984;DHT22;9117;52.420;20.728;2023-04-25T12:02:46;10.50;71.10
17984;DHT22;9117;52.420;20.728;2023-04-25T12:05:15;10.60;78.20
17984;DHT22;9117;52.420;20.728;2023-04-25T12:07:47;10.70;75.30
17984;DHT22;9117;52.420;20.728;2023-04-25T12:10:18;10.60;82.60
17984;DHT22;9117;52.420;20.728;2023-04-25T12:12:48;10.60;79.30
17984;DHT22;9117;52.420;20.728;2023-04-25T12:15:22;10.60;85.80
17984;DHT22;9117;52.420;20.728;2023-04-25T12:17:52;10.80;76.20
17984;DHT22;9117;52.420;20.728;2023-04-25T12:20:21;10.90;77.00
17984;DHT22;9117;52.420;20.728;2023-04-25T12:22:52;10.90;77.10
17984;DHT22;9117;52.420;20.728;2023-04-25T12:25:39;10.80;75.30
17984;DHT22;9117;52.420;20.728;2023-04-25T12:28:15;10.70;75.20
17984;DHT22;9117;52.420;20.728;2023-04-25T12:30:57;10.90;79.60
17984;DHT22;9117;52.420;20.728;2023-04-25T12:33:31;11.00;80.50
17984;DHT22;9117;52.420;20.728;2023-04-25T12:35:59;10.90;76.80
17984;DHT22;9117;52.420;20.728;2023-04-25T12:38:36;10.90;77.30
17984;DHT22;9117;52.420;20.728;2023-04-25T12:41:04;10.80;76.10
17984;DHT22;9117;52.420;20.728;2023-04-25T12:43:32;10.60;80.00
17984;DHT22;9117;52.420;20.728;2023-04-25T12:46:03;10.80;85.70
17984;DHT22;9117;52.420;20.728;2023-04-25T12:48:31;10.70;86.70
17984;DHT22;9117;52.420;20.728;2023-04-25T12:50:59;10.70;80.20
17984;DHT22;9117;52.420;20.728;2023-04-25T12:53:27;10.60;80.90
17984;DHT22;9117;52.420;20.728;2023-04-25T12:55:55;10.60;86.00
17984;DHT22;9117;52.420;20.728;2023-04-25T12:58:24;10.50;81.90
17984;DHT22;9117;52.420;20.728;2023-04-25T13:00:52;10.60;79.80
17984;DHT22;9117;52.420;20.728;2023-04-25T13:03:22;10.50;83.10
17984;DHT22;9117;52.420;20.728;2023-04-25T13:05:51;10.50;86.90
17984;DHT22;9117;52.420;20.728;2023-04-25T13:08:19;10.70;89.90
17984;DHT22;9117;52.420;20.728;2023-04-25T13:10:47;10.60;80.60
17984;DHT22;9117;52.420;20.728;2023-04-25T13:13:16;10.50;80.20
17984;DHT22;9117;52.420;20.728;2023-04-25T13:15:44;10.50;83.70
17984;DHT22;9117;52.420;20.728;2023-04-25T13:18:13;10.60;81.90
17984;DHT22;9117;52.420;20.728;2023-04-25T13:20:42;10.60;79.60
17984;DHT22;9117;52.420;20.728;2023-04-25T13:23:10;10.60;88.20
17984;DHT22;9117;52.420;20.728;2023-04-25T13:25:39;10.60;83.90
17984;DHT22;9117;52.420;20.728;2023-04-25T13:28:07;10.70;87.70
17984;DHT22;9117;52.420;20.728;2023-04-25T13:30:35;10.70;87.30
17984;DHT22;9117;52.420;20.728;2023-04-25T13:33:03;10.80;80.90
17984;DHT22;9117;52.420;20.728;2023-04-25T13:35:34;10.90;76.90
17984;DHT22;9117;52.420;20.728;2023-04-25T13:38:04;10.90;88.50
17984;DHT22;9117;52.420;20.728;2023-04-25T13:40:32;11.00;87.60
17984;DHT22;9117;52.420;20.728;2023-04-25T13:43:01;11.20;85.00
17984;DHT22;9117;52.420;20.728;2023-04-25T13:45:30;11.30;84.60
17984;DHT22;9117;52.420;20.728;2023-04-25T13:47:59;11.40;83.00
17984;DHT22;9117;52.420;20.728;2023-04-25T13:50:28;11.40;80.00
17984;DHT22;9117;52.420;20.728;2023-04-25T13:52:57;11.50;73.60
17984;DHT22;9117;52.420;20.728;2023-04-25T13:55:26;11.20;86.40
17984;DHT22;9117;52.420;20.728;2023-04-25T13:57:54;11.60;76.00
17984;DHT22;9117;52.420;20.728;2023-04-25T14:00:23;11.80;75.30
17984;DHT22;9117;52.420;20.728;2023-04-25T14:02:51;11.60;74.40
17984;DHT22;9117;52.420;20.728;2023-04-25T14:05:20;11.60;73.40
17984;DHT22;9117;52.420;20.728;2023-04-25T14:07:48;11.50;76.20
17984;DHT22;9117;52.420;20.728;2023-04-25T14:10:17;11.60;85.60
17984;DHT22;9117;52.420;20.728;2023-04-25T14:12:46;11.40;80.40
17984;DHT22;9117;52.420;20.728;2023-04-25T14:15:15;11.30;75.00
17984;DHT22;9117;52.420;20.728;2023-04-25T14:17:43;11.20;77.10
17984;DHT22;9117;52.420;20.728;2023-04-25T14:20:12;11.20;79.80
17984;DHT22;9117;52.420;20.728;2023-04-25T14:22:40;11.00;80.90
17984;DHT22;9117;52.420;20.728;2023-04-25T14:25:10;11.00;76.20
17984;DHT22;9117;52.420;20.728;2023-04-25T14:27:38;10.80;87.60
17984;DHT22;9117;52.420;20.728;2023-04-25T14:30:09;10.60;79.70
17984;DHT22;9117;52.420;20.728;2023-04-25T14:32:38;10.60;78.30
17984;DHT22;9117;52.420;20.728;2023-04-25T14:35:07;10.60;73.60
17984;DHT22;9117;52.420;20.728;2023-04-25T14:37:36;10.60;78.60
17984;DHT22;9117;52.420;20.728;2023-04-25T14:40:04;10.50;80.90
17984;DHT22;9117;52.420;20.728;2023-04-25T14:42:34;10.50;73.30
17984;DHT22;9117;52.420;20.728;2023-04-25T14:45:03;10.60;73.90
17984;DHT22;9117;52.420;20.728;2023-04-25T14:47:32;10.50;74.10
17984;DHT22;9117;52.420;20.728;2023-04-25T14:50:01;10.50;77.30
17984;DHT22;9117;52.420;20.728;2023-04-25T14:52:29;10.60;87.00
17984;DHT22;9117;52.420;20.728;2023-04-25T14:54:57;10.60;84.80
17984;DHT22;9117;52.420;20.728;2023-04-25T14:57:26;10.60;77.90
17984;DHT22;9117;52.420;20.728;2023-04-25T14:59:55;10.60;79.10
17984;DHT22;9117;52.420;20.728;2023-04-25T15:02:23;10.60;80.90
17984;DHT22;9117;52.420;20.728;2023-04-25T15:04:54;10.50;85.50
17984;DHT22;9117;52.420;20.728;2023-04-25T15:07:23;10.50;79.70
17984;DHT22;9117;52.420;20.728;2023-04-25T15:09:51;10.40;80.90
17984;DHT22;9117;52.420;20.728;2023-04-25T15:12:20;10.50;90.50
17984;DHT22;9117;52.420;20.728;2023-04-25T15:14:48;10.40;84.80
17984;DHT22;9117;52.420;20.728;2023-04-25T15:17:16;10.30;92.50
17984;DHT22;9117;52.420;20.728;2023-04-25T15:19:44;10.20;85.10
17984;DHT22;9117;52.420;20.728;2023-04-25T15:22:14;10.10;83.00
17984;DHT22;9117;52.420;20.728;2023-04-25T15:24:42;10.10;82.40
17984;DHT22;9117;52.420;20.728;2023-04-25T15:27:11;10.10;83.70
17984;DHT22;9117;52.420;20.728;2023-04-25T15:29:40;10.00;85.90
17984;DHT22;9117;52.420;20.728;2023-04-25T15:32:08;9.90;92.60
17984;DHT22;9117;52.420;20.728;2023-04-25T15:34:36;9.90;93.50
17984;DHT22;9117;52.420;20.728;2023-04-25T15:37:05;9.90;90.70
17984;DHT22;9117;52.420;20.728;2023-04-25T15:39:34;9.80;88.60
17984;DHT22;9117;52.420;20.728;2023-04-25T15:42:02;9.80;91.40
17984;DHT22;9117;52.420;20.728;2023-04-25T15:44:31;9.70;93.10